createdAt,value
2023-05-05T00:01:06.706Z,18.02
2023-05-05T00:03:40.528Z,18.22
2023-05-05T00:06:12.433Z,18.21
2023-05-05T00:08:41.777Z,18.08
2023-05-05T00:11:11.366Z,17.70
2023-05-05T00:13:40.374Z,18.11
2023-05-05T00:16:12.564Z,18.00
2023-05-05T00:18:45.633Z,17.87
2023-05-05T00:21:14.905Z,18.20
2023-05-05T00:23:44.771Z,17.77
2023-05-05T00:26:15.214Z,18.05
2023-05-05T00:28:43.957Z,18.12
2023-05-05T00:31:13.072Z,18.07
2023-05-05T00:33:43.735Z,18.11
2023-05-05T00:36:13.395Z,18.17
2023-05-05T00:38:43.594Z,18.21
2023-05-05T00:41:13.811Z,18.19
2023-05-05T00:43:44.032Z,18.28
2023-05-05T00:46:28.546Z,18.00
2023-05-05T00:49:00.374Z,18.09
2023-05-05T00:51:30.375Z,18.19
2023-05-05T00:53:59.808Z,18.19
2023-05-05T00:56:29.725Z,18.45
2023-05-05T00:58:59.196Z,18.37
2023-05-05T01:01:28.019Z,18.26
2023-05-05T01:04:00.103Z,18.32
2023-05-05T01:06:47.164Z,18.34
2023-05-05T01:09:30.207Z,18.16
2023-05-05T01:12:14.782Z,18.34
2023-05-05T01:14:54.362Z,18.36
2023-05-05T01:17:37.176Z,18.32
2023-05-05T01:20:22.073Z,18.29
2023-05-05T01:22:58.942Z,18.23
2023-05-05T01:26:09.621Z,18.31
2023-05-05T01:29:05.826Z,18.30
2023-05-05T01:31:57.157Z,18.19
2023-05-05T01:34:32.609Z,18.38
2023-05-05T01:37:11.063Z,18.13
2023-05-05T01:39:42.756Z,18.16
2023-05-05T01:42:15.331Z,18.23
2023-05-05T01:44:46.374Z,18.24
2023-05-05T01:47:22.170Z,18.33
2023-05-05T01:49:54.628Z,18.16
2023-05-05T01:52:28.006Z,18.39
2023-05-05T01:55:01.144Z,18.45
2023-05-05T01:57:33.184Z,18.35
2023-05-05T02:00:06.337Z,18.23
2023-05-05T02:02:40.516Z,18.20
2023-05-05T02:05:11.690Z,18.16
2023-05-05T02:07:42.142Z,18.21
2023-05-05T02:10:14.723Z,18.23
2023-05-05T02:12:47.205Z,18.15
2023-05-05T02:15:17.605Z,18.32
2023-05-05T02:17:54.914Z,17.95
2023-05-05T02:20:25.913Z,18.05
2023-05-05T02:22:56.103Z,18.23
2023-05-05T02:25:28.655Z,18.11
2023-05-05T02:28:05.529Z,18.17
2023-05-05T02:30:38.687Z,18.04
2023-05-05T02:33:18.059Z,17.93
2023-05-05T02:35:51.722Z,17.97
2023-05-05T02:38:25.612Z,18.04
2023-05-05T02:40:59.805Z,18.01
2023-05-05T02:43:33.480Z,17.80
2023-05-05T02:46:02.872Z,17.47
2023-05-05T02:48:33.160Z,17.67
2023-05-05T02:51:02.021Z,17.62
2023-05-05T02:53:31.805Z,17.57
2023-05-05T02:56:19.180Z,17.61
2023-05-05T02:58:59.139Z,17.51
2023-05-05T03:01:41.682Z,17.43
2023-05-05T03:04:29.816Z,17.27
2023-05-05T03:07:08.952Z,17.67
2023-05-05T03:09:43.440Z,17.12
2023-05-05T03:12:19.671Z,17.27
2023-05-05T03:14:55.875Z,17.51
2023-05-05T03:17:27.420Z,17.39
2023-05-05T03:20:03.638Z,17.53
2023-05-05T03:22:40.098Z,17.39
2023-05-05T03:25:09.962Z,17.51
2023-05-05T03:27:40.298Z,17.48
2023-05-05T03:30:10.709Z,17.41
2023-05-05T03:32:43.419Z,17.42
2023-05-05T03:35:14.044Z,17.39
2023-05-05T03:37:43.218Z,17.33
2023-05-05T03:40:17.200Z,17.25
2023-05-05T03:42:47.472Z,17.17
2023-05-05T03:45:17.754Z,17.23
2023-05-05T03:47:46.817Z,17.35
2023-05-05T03:50:22.519Z,17.04
2023-05-05T03:52:51.931Z,17.14
2023-05-05T03:55:22.691Z,17.39
2023-05-05T03:57:51.829Z,17.19
2023-05-05T04:00:25.743Z,17.19
2023-05-05T04:02:57.128Z,17.19
2023-05-05T04:05:28.138Z,17.11
2023-05-05T04:07:58.441Z,16.80
2023-05-05T04:10:27.775Z,16.66
2023-05-05T04:13:04.727Z,16.51
2023-05-05T04:15:34.791Z,16.67
2023-05-05T04:18:05.217Z,16.61
2023-05-05T04:20:37.692Z,16.56
2023-05-05T04:23:09.020Z,16.67
2023-05-05T04:25:38.317Z,16.77
2023-05-05T04:28:07.706Z,16.71
2023-05-05T04:30:40.517Z,16.57
2023-05-05T04:33:09.429Z,16.64
2023-05-05T04:35:43.214Z,16.94
2023-05-05T04:38:32.791Z,16.77
2023-05-05T04:41:08.816Z,17.04
2023-05-05T04:43:39.121Z,17.02
2023-05-05T04:46:09.450Z,16.99
2023-05-05T04:48:40.399Z,17.10
2023-05-05T04:51:15.846Z,16.95
2023-05-05T04:53:47.993Z,16.93
2023-05-05T04:56:25.291Z,16.95
2023-05-05T04:58:54.544Z,16.94
2023-05-05T05:01:23.914Z,17.00
2023-05-05T05:03:53.926Z,16.88
2023-05-05T05:06:30.688Z,16.86
2023-05-05T05:09:01.067Z,17.12
2023-05-05T05:11:31.818Z,17.08
2023-05-05T05:14:02.606Z,16.89
2023-05-05T05:16:34.590Z,17.07
2023-05-05T05:19:03.535Z,17.12
2023-05-05T05:21:44.313Z,17.05
2023-05-05T05:24:17.950Z,17.12
2023-05-05T05:26:47.525Z,17.18
2023-05-05T05:29:26.073Z,17.20
2023-05-05T05:31:57.659Z,17.33
2023-05-05T05:34:28.311Z,17.36
2023-05-05T05:37:00.368Z,17.57
2023-05-05T05:39:31.006Z,17.45
2023-05-05T05:41:59.789Z,17.44
2023-05-05T05:44:28.661Z,17.67
2023-05-05T05:46:58.162Z,17.68
2023-05-05T05:49:27.592Z,17.57
2023-05-05T05:51:57.076Z,17.66
2023-05-05T05:54:28.883Z,17.97
2023-05-05T05:56:59.578Z,17.75
2023-05-05T05:59:37.156Z,17.97
2023-05-05T06:02:09.610Z,18.26
2023-05-05T06:04:42.251Z,18.11
2023-05-05T06:07:12.943Z,18.13
2023-05-05T06:09:45.847Z,18.45
2023-05-05T06:12:15.022Z,18.32
2023-05-05T06:14:45.449Z,18.68
2023-05-05T06:17:14.896Z,18.59
2023-05-05T06:19:44.309Z,18.79
2023-05-05T06:22:14.695Z,18.85
2023-05-05T06:25:11.526Z,18.93
2023-05-05T06:27:41.127Z,19.11
2023-05-05T06:30:12.393Z,19.21
2023-05-05T06:32:42.634Z,19.08
2023-05-05T06:35:13.245Z,19.42
2023-05-05T06:37:42.484Z,19.27
2023-05-05T06:40:15.385Z,19.43
2023-05-05T06:42:45.135Z,19.33
2023-05-05T06:45:15.653Z,19.65
2023-05-05T06:47:45.279Z,19.57
2023-05-05T06:50:18.630Z,19.76
2023-05-05T06:52:52.661Z,20.05
2023-05-05T06:55:25.039Z,20.15
2023-05-05T06:57:57.991Z,19.94
2023-05-05T07:00:30.093Z,20.29
2023-05-05T07:03:02.485Z,20.34
2023-05-05T07:05:32.208Z,20.46
2023-05-05T07:08:08.653Z,20.32
2023-05-05T07:10:42.595Z,20.59
2023-05-05T07:13:13.694Z,20.57
2023-05-05T07:15:46.458Z,20.28
2023-05-05T07:18:16.774Z,20.69
2023-05-05T07:20:48.105Z,20.55
2023-05-05T07:23:17.554Z,21.03
2023-05-05T07:25:48.596Z,21.10
2023-05-05T07:28:19.524Z,21.07
2023-05-05T07:30:49.320Z,21.32
2023-05-05T07:33:20.075Z,21.76
2023-05-05T07:35:48.523Z,21.81
2023-05-05T07:38:19.969Z,21.26
2023-05-05T07:40:50.464Z,21.44
2023-05-05T07:43:23.178Z,21.54
2023-05-05T07:45:52.977Z,21.48
2023-05-05T07:48:23.365Z,21.77
2023-05-05T07:50:53.019Z,21.52
2023-05-05T07:53:25.316Z,21.95
2023-05-05T07:55:55.830Z,22.09
2023-05-05T07:58:25.759Z,22.20
2023-05-05T08:00:57.174Z,22.23
2023-05-05T08:03:27.468Z,22.31
2023-05-05T08:05:57.209Z,22.46
2023-05-05T08:08:31.002Z,22.84
2023-05-05T08:11:02.277Z,23.21
2023-05-05T08:13:34.158Z,22.91
2023-05-05T08:16:04.198Z,23.45
2023-05-05T08:18:35.731Z,23.57
2023-05-05T08:21:06.234Z,23.62
2023-05-05T08:23:36.434Z,23.45
2023-05-05T08:26:09.345Z,23.55
2023-05-05T08:28:49.168Z,24.22
2023-05-05T08:31:18.223Z,24.22
2023-05-05T08:33:47.676Z,23.77
2023-05-05T08:36:16.964Z,24.04
2023-05-05T08:38:46.564Z,23.94
2023-05-05T08:41:21.092Z,24.38
2023-05-05T08:43:53.461Z,24.20
2023-05-05T08:46:25.123Z,24.23
2023-05-05T08:48:57.925Z,24.73
2023-05-05T08:51:32.950Z,24.73
2023-05-05T08:54:07.155Z,24.49
2023-05-05T08:56:44.935Z,24.39
2023-05-05T08:59:16.287Z,24.76
2023-05-05T09:01:46.609Z,24.62
2023-05-05T09:04:19.509Z,24.92
2023-05-05T09:06:49.764Z,24.97
2023-05-05T09:09:21.954Z,24.92
2023-05-05T09:11:57.838Z,25.04
2023-05-05T09:14:27.357Z,24.68
2023-05-05T09:17:04.679Z,24.46
2023-05-05T09:19:35.174Z,25.21
2023-05-05T09:22:17.694Z,24.99
2023-05-05T09:24:57.716Z,24.87
2023-05-05T09:27:29.169Z,24.97
2023-05-05T09:30:02.894Z,25.08
2023-05-05T09:32:46.802Z,24.10
2023-05-05T09:35:16.243Z,23.97
2023-05-05T09:37:55.753Z,23.65
2023-05-05T09:40:25.327Z,23.39
2023-05-05T09:43:05.903Z,23.32
2023-05-05T09:45:37.596Z,23.40
2023-05-05T09:48:09.453Z,22.95
2023-05-05T09:50:46.149Z,22.65
2023-05-05T09:53:15.448Z,22.40
2023-05-05T09:55:55.840Z,22.14
2023-05-05T09:58:30.883Z,22.08
2023-05-05T10:01:02.560Z,22.14
2023-05-05T10:03:31.461Z,21.68
2023-05-05T10:06:03.723Z,21.81
2023-05-05T10:08:34.152Z,21.66
2023-05-05T10:11:08.066Z,21.27
2023-05-05T10:13:44.667Z,21.14
2023-05-05T10:16:15.109Z,21.39
2023-05-05T10:18:48.058Z,20.80
2023-05-05T10:21:25.931Z,20.74
2023-05-05T10:24:13.043Z,19.87
2023-05-05T10:35:58.340Z,19.56
2023-05-05T10:38:33.095Z,19.54
2023-05-05T10:41:03.058Z,19.73
2023-05-05T10:43:34.876Z,19.16
2023-05-05T10:46:03.678Z,19.70
2023-05-05T10:48:42.043Z,19.76
2023-05-05T10:51:38.676Z,19.74
2023-05-05T10:54:24.412Z,19.16
2023-05-05T10:56:53.747Z,19.11
2023-05-05T10:59:42.450Z,19.13
2023-05-05T11:02:23.665Z,19.27
2023-05-05T11:05:17.937Z,19.05
2023-05-05T11:07:47.842Z,19.02
2023-05-05T11:10:19.103Z,18.83
2023-05-05T11:13:23.722Z,18.98
2023-05-05T11:15:54.294Z,19.23
2023-05-05T11:18:35.959Z,19.14
2023-05-05T11:21:17.957Z,18.92
2023-05-05T11:24:16.416Z,18.75
2023-05-05T11:26:57.704Z,18.90
2023-05-05T11:29:26.473Z,19.17
2023-05-05T11:32:13.927Z,19.38
2023-05-05T11:34:50.838Z,18.99
2023-05-05T11:37:23.683Z,19.10
2023-05-05T11:40:04.664Z,18.97
2023-05-05T11:42:35.974Z,18.39
2023-05-05T11:45:20.556Z,18.73
2023-05-05T11:47:49.120Z,18.43
2023-05-05T11:50:20.894Z,18.73
2023-05-05T11:52:50.018Z,18.74
2023-05-05T11:55:25.673Z,18.96
2023-05-05T11:57:55.785Z,18.89
2023-05-05T12:00:36.615Z,18.39
2023-05-05T12:03:05.773Z,18.82
2023-05-05T12:05:36.746Z,18.66
2023-05-05T12:08:07.110Z,19.07
2023-05-05T12:10:35.965Z,18.46
2023-05-05T12:13:06.235Z,18.37
2023-05-05T12:15:36.047Z,18.70
2023-05-05T12:18:06.012Z,18.67
2023-05-05T12:20:36.817Z,18.87
2023-05-05T12:23:06.396Z,18.56
2023-05-05T12:25:41.281Z,18.76
2023-05-05T12:28:13.013Z,18.22
2023-05-05T12:30:42.386Z,18.48
2023-05-05T12:33:12.517Z,18.34
2023-05-05T12:35:44.380Z,18.13
2023-05-05T12:38:13.784Z,18.52
2023-05-05T12:40:53.008Z,17.96
2023-05-05T12:43:31.369Z,17.84
2023-05-05T12:46:11.597Z,17.93
2023-05-05T12:48:46.340Z,18.26
2023-05-05T12:51:20.045Z,18.54
2023-05-05T12:54:02.582Z,18.42
2023-05-05T12:56:41.409Z,18.31
2023-05-05T12:59:13.761Z,17.90
2023-05-05T13:01:51.634Z,17.94
2023-05-05T13:04:21.804Z,18.57
2023-05-05T13:07:08.710Z,18.10
2023-05-05T13:09:38.487Z,18.42
2023-05-05T13:12:08.603Z,18.64
2023-05-05T13:14:42.982Z,18.52
2023-05-05T13:17:12.457Z,18.37
2023-05-05T13:19:46.720Z,18.20
2023-05-05T13:22:18.302Z,18.25
2023-05-05T13:25:07.372Z,18.33
2023-05-05T13:27:37.869Z,18.56
2023-05-05T13:30:10.252Z,18.37
2023-05-05T13:32:40.768Z,17.70
2023-05-05T13:35:11.714Z,18.08
2023-05-05T13:37:42.911Z,17.71
2023-05-05T13:40:13.534Z,17.69
2023-05-05T13:42:42.208Z,18.24
2023-05-05T13:45:14.218Z,17.82
2023-05-05T13:47:44.637Z,18.05
2023-05-05T13:50:18.823Z,18.20
2023-05-05T13:52:49.478Z,18.01
2023-05-05T13:55:19.093Z,17.87
2023-05-05T13:57:49.725Z,18.09
2023-05-05T14:00:22.186Z,18.29
2023-05-05T14:02:50.864Z,17.95
2023-05-05T14:05:21.588Z,17.51
2023-05-05T14:07:50.729Z,17.68
2023-05-05T14:10:19.989Z,17.84
2023-05-05T14:12:50.057Z,17.55
2023-05-05T14:15:28.031Z,18.10
2023-05-05T14:17:56.694Z,18.04
2023-05-05T14:20:25.708Z,18.06
2023-05-05T14:22:55.228Z,18.09
2023-05-05T14:25:24.887Z,17.93
2023-05-05T14:27:55.010Z,18.01
2023-05-05T14:30:25.471Z,18.22
2023-05-05T14:32:54.471Z,17.92
2023-05-05T14:35:23.769Z,18.40
2023-05-05T14:37:52.467Z,18.28
2023-05-05T14:40:34.240Z,18.08
2023-05-05T14:43:05.586Z,17.96
2023-05-05T14:45:38.271Z,18.23
2023-05-05T14:48:11.068Z,18.08
2023-05-05T14:50:42.872Z,18.31
2023-05-05T14:53:17.193Z,18.54
2023-05-05T14:56:03.049Z,18.45
2023-05-05T14:58:39.845Z,18.71
2023-05-05T15:01:12.679Z,18.70
2023-05-05T15:03:41.494Z,19.26
2023-05-05T15:06:10.576Z,18.94
2023-05-05T15:08:39.214Z,19.43
2023-05-05T15:11:11.954Z,20.03
2023-05-05T15:13:49.998Z,21.02
2023-05-05T15:16:23.427Z,21.86
2023-05-05T15:18:52.326Z,22.35
2023-05-05T15:21:21.376Z,22.17
2023-05-05T15:23:50.098Z,22.28
2023-05-05T15:26:19.006Z,23.05
2023-05-05T15:28:49.735Z,22.64
2023-05-05T15:31:23.376Z,21.50
2023-05-05T15:34:12.792Z,21.61
2023-05-05T15:36:43.940Z,21.28
2023-05-05T15:39:13.644Z,21.62
2023-05-05T15:41:42.446Z,21.52
2023-05-05T15:44:13.072Z,21.87
2023-05-05T15:46:43.362Z,21.38
2023-05-05T15:49:11.948Z,21.07
2023-05-05T15:51:41.031Z,21.74
2023-05-05T15:54:09.972Z,21.95
2023-05-05T15:56:38.996Z,22.15
2023-05-05T15:59:19.208Z,22.21
2023-05-05T16:01:51.796Z,21.67
2023-05-05T16:04:21.156Z,22.52
2023-05-05T16:06:50.080Z,23.79
2023-05-05T16:09:20.034Z,23.63
2023-05-05T16:11:49.001Z,24.02
2023-05-05T16:14:21.026Z,24.01
2023-05-05T16:16:52.202Z,25.45
2023-05-05T16:19:26.415Z,25.49
2023-05-05T16:22:08.339Z,26.31
2023-05-05T16:24:38.280Z,26.73
2023-05-05T16:27:08.110Z,25.69
2023-05-05T16:29:38.470Z,25.86
2023-05-05T16:32:08.864Z,26.30
2023-05-05T16:34:39.454Z,26.65
2023-05-05T16:37:09.089Z,25.33
2023-05-05T16:39:40.420Z,25.61
2023-05-05T16:42:13.405Z,25.53
2023-05-05T16:44:42.610Z,23.95
2023-05-05T16:47:18.348Z,24.82
2023-05-05T16:49:49.228Z,23.55
2023-05-05T16:52:21.189Z,22.74
2023-05-05T16:54:55.793Z,22.67
2023-05-05T16:57:25.282Z,22.41
2023-05-05T16:59:57.175Z,22.26
2023-05-05T17:02:28.121Z,22.65
2023-05-05T17:04:57.158Z,22.48
2023-05-05T17:07:27.542Z,22.36
2023-05-05T17:09:57.445Z,21.23
2023-05-05T17:12:26.841Z,21.55
2023-05-05T17:14:56.046Z,20.77
2023-05-05T17:17:30.630Z,21.11
2023-05-05T17:19:59.487Z,19.89
2023-05-05T17:22:29.041Z,20.21
2023-05-05T17:24:58.070Z,20.32
2023-05-05T17:27:27.396Z,20.37
2023-05-05T17:29:56.946Z,19.95
2023-05-05T17:32:31.388Z,19.75
2023-05-05T17:35:01.273Z,19.77
2023-05-05T17:37:32.703Z,19.99
2023-05-05T17:40:01.206Z,19.25
2023-05-05T17:42:33.455Z,19.45
2023-05-05T17:45:02.056Z,19.79
2023-05-05T17:47:32.723Z,19.62
2023-05-05T17:50:01.661Z,19.39
2023-05-05T17:52:30.327Z,18.92
2023-05-05T17:54:59.247Z,19.43
2023-05-05T17:57:28.496Z,19.13
2023-05-05T17:59:57.200Z,19.20
2023-05-05T18:02:26.927Z,18.74
2023-05-05T18:05:04.840Z,19.44
2023-05-05T18:07:34.757Z,19.48
2023-05-05T18:10:13.037Z,19.43
2023-05-05T18:12:44.355Z,18.85
2023-05-05T18:15:21.608Z,18.95
2023-05-05T18:17:50.584Z,19.31
2023-05-05T18:20:24.214Z,19.26
2023-05-05T18:22:54.250Z,19.22
2023-05-05T18:25:23.663Z,19.23
2023-05-05T18:27:53.899Z,19.23
2023-05-05T18:30:24.556Z,18.95
2023-05-05T18:32:53.448Z,18.52
2023-05-05T18:35:24.293Z,18.60
2023-05-05T18:37:55.244Z,18.89
2023-05-05T18:40:26.597Z,18.55
2023-05-05T18:42:57.161Z,18.98
2023-05-05T18:45:28.589Z,19.01
2023-05-05T18:48:00.084Z,19.05
2023-05-05T18:50:32.486Z,18.90
2023-05-05T18:53:01.532Z,18.90
2023-05-05T18:55:34.967Z,18.75
2023-05-05T18:58:06.719Z,18.58
2023-05-05T19:00:36.300Z,18.56
2023-05-05T19:03:06.856Z,18.49
2023-05-05T19:05:40.153Z,18.38
2023-05-05T19:08:11.986Z,18.49
2023-05-05T19:10:40.693Z,18.39
2023-05-05T19:13:13.845Z,18.27
2023-05-05T19:15:45.398Z,18.07
2023-05-05T19:18:16.975Z,17.98
2023-05-05T19:20:48.135Z,17.95
2023-05-05T19:23:21.572Z,17.87
2023-05-05T19:25:57.982Z,17.75
2023-05-05T19:28:27.803Z,17.66
2023-05-05T19:30:58.545Z,17.57
2023-05-05T19:33:29.480Z,17.53
2023-05-05T19:36:03.620Z,17.43
2023-05-05T19:38:33.865Z,17.41
2023-05-05T19:41:06.307Z,17.30
2023-05-05T19:43:43.393Z,17.17
2023-05-05T19:46:27.197Z,17.25
2023-05-05T19:48:58.703Z,17.15
2023-05-05T19:51:29.929Z,16.96
2023-05-05T19:53:59.739Z,17.07
2023-05-05T19:56:33.196Z,17.04
2023-05-05T19:59:06.548Z,16.98
2023-05-05T20:01:38.069Z,16.96
2023-05-05T20:04:08.588Z,16.87
2023-05-05T20:06:39.643Z,16.88
2023-05-05T20:09:10.164Z,16.81
2023-05-05T20:11:39.537Z,16.86
2023-05-05T20:14:10.608Z,16.80
2023-05-05T20:16:43.422Z,16.80
2023-05-05T20:19:13.703Z,16.79
2023-05-05T20:21:44.923Z,16.71
2023-05-05T20:24:13.812Z,16.63
2023-05-05T20:26:46.933Z,16.57
2023-05-05T20:29:21.087Z,16.53
2023-05-05T20:31:59.637Z,16.54
2023-05-05T20:34:28.444Z,16.46
2023-05-05T20:37:07.017Z,16.45
2023-05-05T20:39:36.037Z,16.35
2023-05-05T20:42:05.056Z,16.40
2023-05-05T20:44:34.568Z,16.37
2023-05-05T20:47:08.202Z,16.36
2023-05-05T20:49:38.618Z,16.35
2023-05-05T20:52:10.773Z,16.32
2023-05-05T20:54:41.163Z,16.31
2023-05-05T20:57:12.648Z,16.31
2023-05-05T20:59:42.096Z,16.10
2023-05-05T21:02:16.216Z,16.20
2023-05-05T21:04:45.934Z,16.11
2023-05-05T21:07:18.928Z,16.03
2023-05-05T21:09:50.249Z,16.07
2023-05-05T21:12:19.932Z,16.12
2023-05-05T21:14:53.556Z,15.99
2023-05-05T21:17:22.497Z,16.03
2023-05-05T21:19:51.962Z,15.91
2023-05-05T21:22:23.728Z,16.03
2023-05-05T21:24:54.917Z,16.04
2023-05-05T21:27:25.396Z,16.03
2023-05-05T21:29:58.217Z,16.10
2023-05-05T21:32:27.258Z,16.04
2023-05-05T21:34:55.837Z,15.98
2023-05-05T21:37:26.336Z,15.97
2023-05-05T21:39:55.297Z,15.98
2023-05-05T21:42:25.484Z,15.94
2023-05-05T21:44:54.769Z,15.93
2023-05-05T21:47:25.022Z,15.92
2023-05-05T21:49:54.730Z,15.88
2023-05-05T21:52:23.443Z,15.87
2023-05-05T21:54:54.788Z,15.81
2023-05-05T21:57:23.954Z,15.78
2023-05-05T21:59:53.152Z,15.81
2023-05-05T22:02:22.902Z,15.76
2023-05-05T22:04:54.435Z,15.69
2023-05-05T22:07:25.018Z,15.66
2023-05-05T22:09:59.312Z,15.62
2023-05-05T22:12:29.353Z,15.61
2023-05-05T22:14:59.480Z,15.55
2023-05-05T22:17:30.376Z,15.56
2023-05-05T22:19:59.602Z,15.53
2023-05-05T22:22:28.408Z,15.47
2023-05-05T22:24:59.069Z,15.46
2023-05-05T22:27:28.282Z,15.41
2023-05-05T22:29:58.211Z,15.39
2023-05-05T22:32:27.528Z,15.32
2023-05-05T22:34:57.043Z,15.30
2023-05-05T22:37:26.984Z,15.18
2023-05-05T22:39:58.834Z,15.19
2023-05-05T22:42:32.866Z,15.24
2023-05-05T22:45:01.354Z,15.18
2023-05-05T22:47:32.603Z,14.99
2023-05-05T22:50:02.155Z,15.16
2023-05-05T22:52:33.105Z,15.16
2023-05-05T22:55:02.253Z,15.27
2023-05-05T22:57:35.274Z,15.27
2023-05-05T23:00:05.829Z,15.20
2023-05-05T23:02:35.230Z,15.20
2023-05-05T23:05:05.578Z,15.22
2023-05-05T23:07:34.352Z,15.14
2023-05-05T23:10:04.879Z,14.94
2023-05-05T23:12:35.632Z,15.14
2023-05-05T23:15:05.828Z,15.09
2023-05-05T23:17:39.735Z,15.20
2023-05-05T23:20:12.312Z,15.23
2023-05-05T23:22:42.475Z,15.23
2023-05-05T23:25:12.146Z,15.14
2023-05-05T23:27:42.536Z,15.17
2023-05-05T23:30:13.201Z,15.28
2023-05-05T23:32:44.861Z,15.32
2023-05-05T23:35:14.192Z,15.39
2023-05-05T23:37:44.073Z,15.24
2023-05-05T23:40:15.409Z,15.16
2023-05-05T23:42:46.221Z,15.07
2023-05-05T23:45:16.917Z,15.12
2023-05-05T23:47:47.302Z,15.30
2023-05-05T23:50:15.775Z,15.38
2023-05-05T23:52:48.901Z,15.15
2023-05-05T23:55:18.804Z,15.04
2023-05-05T23:57:52.250Z,15.28
